Time;durP1;ratioP1;P1;durP2;ratioP2;P2;SDS_P1;SDS_P2;PMS_P1;PMS_P2;Temp;Humidity;BMP_temperature;BMP_pressure;BME280_temperature;BME280_humidity;BME280_pressure;Samples;Min_cycle;Max_cycle;Signal;HPM_P1;HPM_P2
2022/10/13 00:02:39;;;;;;;33.63;21.03;;;;;;;;;;4991918;28;20026;-69
2022/10/13 00:05:05;;;;;;;29.30;20.50;;;;;;;;;;4993687;28;20034;-69
2022/10/13 00:07:30;;;;;;;31.00;20.75;;;;;;;;;;4991182;28;20044;-68
2022/10/13 00:09:55;;;;;;;31.95;20.45;;;;;;;;;;4991944;28;20081;-69
2022/10/13 00:12:21;;;;;;;38.70;20.13;;;;;;;;;;4992636;28;20684;-69
2022/10/13 00:14:46;;;;;;;32.97;20.53;;;;;;;;;;4993220;28;20026;-71
2022/10/13 00:17:11;;;;;;;30.53;19.53;;;;;;;;;;4991701;28;20054;-69
2022/10/13 00:19:36;;;;;;;29.87;19.70;;;;;;;;;;4993455;28;20026;-69
2022/10/13 00:22:02;;;;;;;34.47;20.20;;;;;;;;;;4993035;28;20284;-69
2022/10/13 00:24:27;;;;;;;30.43;20.00;;;;;;;;;;4994371;28;20785;-69
2022/10/13 00:26:52;;;;;;;30.38;19.02;;;;;;;;;;4991146;28;20403;-69
2022/10/13 00:29:17;;;;;;;29.37;19.37;;;;;;;;;;4988696;28;20029;-68
2022/10/13 00:31:43;;;;;;;32.40;20.20;;;;;;;;;;4990478;28;20757;-71
2022/10/13 00:34:08;;;;;;;31.83;19.97;;;;;;;;;;4992335;28;20049;-69
2022/10/13 00:36:33;;;;;;;29.63;18.73;;;;;;;;;;4991010;28;20399;-69
2022/10/13 00:38:59;;;;;;;25.20;18.30;;;;;;;;;;4991437;28;20026;-69
2022/10/13 00:41:24;;;;;;;30.93;18.13;;;;;;;;;;4991175;28;20038;-69
2022/10/13 00:43:49;;;;;;;29.90;18.60;;;;;;;;;;4992229;28;20812;-69
2022/10/13 00:46:15;;;;;;;32.30;18.73;;;;;;;;;;4989134;28;20058;-69
2022/10/13 00:48:41;;;;;;;28.52;18.83;;;;;;;;;;4994481;28;20041;-69
2022/10/13 00:51:07;;;;;;;33.03;19.52;;;;;;;;;;4994975;28;20105;-69
2022/10/13 00:53:35;;;;;;;29.27;19.42;;;;;;;13.89;nan;101269.50;4995864;28;20090;-70
2022/10/13 00:56:01;;;;;;;29.33;19.38;;;;;;;;;;4992726;28;20503;-70
2022/10/13 00:58:30;;;;;;;28.65;19.10;;;;;;;;;;4991868;28;20030;-70
2022/10/13 01:00:56;;;;;;;28.00;18.38;;;;;;;;;;4991356;28;20030;-69
2022/10/13 01:03:22;;;;;;;29.17;18.90;;;;;;;;;;4992781;28;20030;-69
2022/10/13 01:05:48;;;;;;;28.90;18.52;;;;;;;;;;4992445;28;20030;-69
2022/10/13 01:08:14;;;;;;;26.45;17.67;;;;;;;;;;4993369;28;20058;-69
2022/10/13 01:10:54;;;;;;;28.55;19.02;;;;;;;;;;4992999;28;20119;-69
2022/10/13 01:13:20;;;;;;;27.25;17.83;;;;;;;;;;4990549;28;20088;-71
2022/10/13 01:15:52;;;;;;;28.90;18.10;;;;;;;;;;4992941;28;20042;-69
2022/10/13 01:18:23;;;;;;;200.35;38.03;;;;;;;;;;4992663;28;20025;-70
2022/10/13 01:20:48;;;;;;;140.65;57.17;;;;;;;;;;4993106;28;20507;-69
2022/10/13 01:23:23;;;;;;;32.63;22.02;;;;;;;;;;4995212;28;20026;-69
2022/10/13 01:26:16;;;;;;;30.98;18.08;;;;;;;;;;4992616;28;20604;-70
2022/10/13 01:28:41;;;;;;;25.95;17.75;;;;;;;;;;4998894;28;20034;-69
2022/10/13 01:31:13;;;;;;;24.80;17.57;;;;;;;;;;4991236;28;20503;-69
2022/10/13 01:33:44;;;;;;;26.90;17.85;;;;;;;;;;4991312;28;20038;-70
2022/10/13 01:36:14;;;;;;;26.85;17.33;;;;;;;;;;4994676;28;20041;-69
2022/10/13 01:38:42;;;;;;;36.85;18.58;;;;;;;;;;4986672;28;20022;-69
2022/10/13 01:41:16;;;;;;;28.63;17.52;;;;;;;;;;4989688;28;20034;-69
2022/10/13 01:44:04;;;;;;;32.40;18.27;;;;;;;;;;4992069;28;20026;-69
2022/10/13 01:46:31;;;;;;;32.97;19.00;;;;;;;;;;4912341;29;20123;-70
2022/10/13 01:48:57;;;;;;;34.70;18.33;;;;;;;;;;4912587;29;20050;-70
2022/10/13 01:51:24;;;;;;;26.95;18.85;;;;;;;;;;4911289;29;20051;-69
2022/10/13 01:53:50;;;;;;;31.02;19.20;;;;;;;;;;4910718;29;20492;-69
2022/10/13 01:56:16;;;;;;;30.20;19.38;;;;;;;;;;4912085;29;20032;-69
2022/10/13 01:58:41;;;;;;;31.77;19.63;;;;;;;;;;4912298;29;20044;-69
2022/10/13 02:01:15;;;;;;;30.27;19.05;;;;;;;;;;4912781;29;20043;-69
2022/10/13 02:03:49;;;;;;;30.77;19.42;;;;;;;;;;4908445;29;20040;-70
2022/10/13 02:06:19;;;;;;;26.88;18.50;;;;;;;;;;4914555;29;20024;-69
2022/10/13 02:08:51;;;;;;;31.75;18.92;;;;;;;;;;4909996;29;20514;-70
2022/10/13 02:11:18;;;;;;;31.08;18.90;;;;;;;;;;4896707;29;20059;-69
2022/10/13 02:13:45;;;;;;;31.17;20.00;;;;;;;;;;4910428;29;20530;-69
2022/10/13 02:16:12;;;;;;;32.90;20.33;;;;;;;;;;4911817;29;20052;-70
2022/10/13 02:18:37;;;;;;;30.92;19.23;;;;;;;;;;4912213;29;20040;-70
2022/10/13 02:21:02;;;;;;;31.73;19.63;;;;;;;;;;4911390;29;20434;-69
2022/10/13 02:23:28;;;;;;;31.50;19.67;;;;;;;;;;4950544;28;20276;-70
2022/10/13 02:25:54;;;;;;;31.85;19.58;;;;;;;;;;4990743;28;20084;-69
2022/10/13 02:28:20;;;;;;;28.15;18.80;;;;;;;;;;4990615;28;20041;-69
2022/10/13 02:30:45;;;;;;;28.58;18.58;;;;;;;;;;4990913;28;20034;-69
2022/10/13 02:33:11;;;;;;;31.58;18.63;;;;;;;;;;4990940;28;20034;-68
2022/10/13 02:35:37;;;;;;;32.03;18.98;;;;;;;13.72;nan;101239.38;4991042;28;20037;-70
2022/10/13 02:38:02;;;;;;;31.85;20.23;;;;;;;;;;4992992;28;20014;-68
2022/10/13 02:40:27;;;;;;;31.13;18.33;;;;;;;;;;4993559;28;20405;-68
2022/10/13 02:42:53;;;;;;;31.77;18.73;;;;;;;;;;4995624;28;20054;-69
2022/10/13 02:45:18;;;;;;;29.02;17.30;;;;;;;;;;4992402;28;20279;-69
2022/10/13 02:47:44;;;;;;;28.30;17.42;;;;;;;;;;4994045;28;20037;-69
2022/10/13 02:50:09;;;;;;;32.63;17.05;;;;;;;;;;4995328;28;20030;-69
2022/10/13 02:52:34;;;;;;;28.13;18.03;;;;;;;;;;4993986;28;20609;-69
2022/10/13 02:54:59;;;;;;;29.73;18.30;;;;;;;;;;5008367;28;20322;-70
2022/10/13 02:57:25;;;;;;;29.07;17.43;;;;;;;;;;4995390;28;20022;-69
2022/10/13 02:59:50;;;;;;;28.55;17.85;;;;;;;;;;4995198;28;20101;-69
2022/10/13 03:02:16;;;;;;;31.53;17.97;;;;;;;;;;5006775;28;20057;-69
2022/10/13 03:04:41;;;;;;;30.33;17.48;;;;;;;;;;4996224;28;20030;-69
2022/10/13 03:07:07;;;;;;;29.40;17.60;;;;;;;;;;4996391;28;20042;-69
2022/10/13 03:09:32;;;;;;;28.05;17.58;;;;;;;;;;4994672;28;20425;-69
2022/10/13 03:11:57;;;;;;;30.80;17.73;;;;;;;;;;4994540;28;20026;-69
2022/10/13 03:14:23;;;;;;;26.87;16.27;;;;;;;;;;4994908;28;20038;-69
2022/10/13 03:16:48;;;;;;;28.85;16.20;;;;;;;;;;4993071;28;20504;-69
2022/10/13 03:19:13;;;;;;;26.03;16.13;;;;;;;;;;4995423;28;20030;-69
2022/10/13 03:21:38;;;;;;;28.10;17.03;;;;;;;;;;4996714;28;20034;-70
2022/10/13 03:24:04;;;;;;;24.90;16.13;;;;;;;;;;4994038;28;20392;-69
2022/10/13 03:26:29;;;;;;;29.63;17.08;;;;;;;;;;4994819;28;20050;-69
2022/10/13 03:28:55;;;;;;;25.90;16.33;;;;;;;;;;4995351;28;20096;-69
2022/10/13 03:31:20;;;;;;;35.93;17.63;;;;;;;;;;4995231;28;20066;-69
2022/10/13 03:33:45;;;;;;;24.17;15.43;;;;;;;;;;4997394;28;20064;-69
2022/10/13 03:36:12;;;;;;;27.90;15.52;;;;;;;;;;4997758;28;20287;-69
2022/10/13 03:38:37;;;;;;;28.50;15.98;;;;;;;;;;4994031;28;20038;-69
2022/10/13 03:41:04;;;;;;;23.92;15.15;;;;;;;;;;4993854;28;20040;-69
2022/10/13 03:43:29;;;;;;;24.52;15.68;;;;;;;;;;4994122;28;20027;-69
2022/10/13 03:45:55;;;;;;;26.87;15.53;;;;;;;;;;4992904;28;20048;-69
2022/10/13 03:48:21;;;;;;;28.83;17.35;;;;;;;;;;4992784;28;20034;-69
2022/10/13 03:50:46;;;;;;;29.27;16.85;;;;;;;;;;4996227;28;20042;-69
2022/10/13 03:53:11;;;;;;;27.03;16.10;;;;;;;;;;4992116;28;20118;-69
2022/10/13 03:55:36;;;;;;;23.63;15.60;;;;;;;;;;4989908;28;20642;-69
2022/10/13 03:58:02;;;;;;;26.00;15.40;;;;;;;;;;4994581;28;20071;-69
2022/10/13 04:00:27;;;;;;;24.33;15.43;;;;;;;;;;4990067;28;20662;-69
2022/10/13 04:02:52;;;;;;;28.30;16.05;;;;;;;;;;4989714;28;20057;-69
2022/10/13 04:05:17;;;;;;;29.63;15.90;;;;;;;;;;4990891;28;20038;-69
2022/10/13 04:07:43;;;;;;;24.80;15.63;;;;;;;;;;4991835;28;20045;-68
2022/10/13 04:10:08;;;;;;;26.50;16.20;;;;;;;;;;4991324;28;20286;-68
2022/10/13 04:12:33;;;;;;;26.52;15.88;;;;;;;;;;4991883;28;20434;-69
2022/10/13 04:14:58;;;;;;;23.80;15.27;;;;;;;;;;4991599;28;20381;-70
2022/10/13 04:17:25;;;;;;;32.53;16.52;;;;;;;;;;4992617;28;20062;-70
2022/10/13 04:19:50;;;;;;;33.33;16.77;;;;;;;;;;4994067;28;20084;-70
2022/10/13 04:22:15;;;;;;;28.15;16.58;;;;;;;;;;4991736;28;20044;-70
2022/10/13 04:24:41;;;;;;;29.47;16.00;;;;;;;;;;4992681;28;20029;-69
2022/10/13 04:27:06;;;;;;;28.50;16.40;;;;;;;;;;4993558;28;20029;-69
2022/10/13 04:29:31;;;;;;;30.53;17.63;;;;;;;;;;4992080;28;20284;-70
2022/10/13 04:31:58;;;;;;;32.63;16.77;;;;;;;;;;4992355;28;20290;-69
2022/10/13 04:34:23;;;;;;;30.13;16.63;;;;;;;;;;4991748;28;20876;-68
2022/10/13 04:36:49;;;;;;;29.47;17.63;;;;;;;;;;4992598;28;20128;-70
2022/10/13 04:39:14;;;;;;;34.05;18.90;;;;;;;;;;4993174;28;20350;-68
2022/10/13 04:41:40;;;;;;;27.93;18.23;;;;;;;;;;4992730;28;20057;-69
2022/10/13 04:44:05;;;;;;;32.17;19.15;;;;;;;;;;4993842;28;20034;-69
2022/10/13 04:46:30;;;;;;;39.30;20.47;;;;;;;;;;4991869;28;20727;-69
2022/10/13 04:48:56;;;;;;;31.10;19.30;;;;;;;;;;4992491;28;20449;-69
2022/10/13 04:51:22;;;;;;;35.55;19.15;;;;;;;;;;5008210;28;20026;-69
2022/10/13 04:53:47;;;;;;;30.02;19.13;;;;;;;;;;4992694;28;20068;-69
2022/10/13 04:56:15;;;;;;;38.87;19.70;;;;;;;;;;4992373;28;20030;-69
2022/10/13 04:58:40;;;;;;;34.30;20.25;;;;;;;;;;4992961;28;20563;-68
2022/10/13 05:01:06;;;;;;;35.20;20.20;;;;;;;;;;4993208;28;20105;-69
2022/10/13 05:03:32;;;;;;;38.08;20.20;;;;;;;;;;4992337;28;20018;-69
2022/10/13 05:05:58;;;;;;;38.90;20.55;;;;;;;;;;4991081;28;20031;-70
2022/10/13 05:08:23;;;;;;;30.52;19.52;;;;;;;;;;4992583;28;20071;-69
2022/10/13 05:10:52;;;;;;;33.70;20.17;;;;;;;;;;4992363;28;20180;-69
2022/10/13 05:13:18;;;;;;;31.40;19.77;;;;;;;;;;4991796;28;20590;-68
2022/10/13 05:15:43;;;;;;;36.83;19.03;;;;;;;;;;5006973;28;20074;-71
2022/10/13 05:18:08;;;;;;;35.97;20.13;;;;;;;;;;4995499;28;20042;-69
2022/10/13 05:20:33;;;;;;;37.37;20.13;;;;;;;;;;4991654;28;20034;-69
2022/10/13 05:22:59;;;;;;;42.97;20.13;;;;;;;;;;4987430;28;20034;-70
2022/10/13 05:25:24;;;;;;;33.08;19.42;;;;;;;;;;4991208;28;20033;-71
2022/10/13 05:27:49;;;;;;;32.53;19.57;;;;;;;;;;4989668;28;20109;-70
2022/10/13 05:30:14;;;;;;;34.00;21.17;;;;;;;;;;4990252;28;20136;-69
2022/10/13 05:32:40;;;;;;;37.63;23.40;;;;;;;;;;4992732;28;20026;-71
2022/10/13 05:35:05;;;;;;;39.80;23.87;;;;;;;;;;4990009;28;20279;-70
2022/10/13 05:37:30;;;;;;;43.33;24.08;;;;;;;;;;4990998;28;20022;-69
2022/10/13 05:39:56;;;;;;;46.40;23.60;;;;;;;;;;5005375;28;20531;-70
2022/10/13 05:42:21;;;;;;;41.63;23.55;;;;;;;;;;4989295;28;20290;-72
2022/10/13 05:44:46;;;;;;;44.72;23.50;;;;;;;;;;4985725;28;20037;-71
2022/10/13 05:47:11;;;;;;;42.73;23.37;;;;;;;;;;4990912;28;20041;-71
2022/10/13 05:49:38;;;;;;;43.97;22.40;;;;;;;;;;4990304;28;20081;-68
2022/10/13 05:52:06;;;;;;;39.65;21.08;;;;;;;;;;4986264;28;20282;-69
2022/10/13 05:54:40;;;;;;;39.40;20.60;;;;;;;;;;5003228;28;20026;-69
2022/10/13 05:57:05;;;;;;;37.15;20.75;;;;;;;;;;4987274;28;20488;-68
2022/10/13 05:59:36;;;;;;;35.47;20.27;;;;;;;;;;5005987;28;20041;-68
2022/10/13 06:02:01;;;;;;;39.20;21.08;;;;;;;;;;4990895;28;20045;-68
2022/10/13 06:04:33;;;;;;;37.83;21.50;;;;;;;;;;4990049;28;20026;-69
2022/10/13 06:06:58;;;;;;;37.63;20.98;;;;;;;;;;4987040;28;20515;-69
2022/10/13 06:09:23;;;;;;;42.03;21.77;;;;;;;;;;4989188;28;20058;-71
2022/10/13 06:11:48;;;;;;;41.93;21.60;;;;;;;;;;4991023;28;20342;-68
2022/10/13 06:14:14;;;;;;;38.70;22.63;;;;;;;;;;4988457;28;20288;-69
2022/10/13 06:16:40;;;;;;;38.57;22.33;;;;;;;;;;4987229;28;20721;-68
2022/10/13 06:19:05;;;;;;;40.67;21.23;;;;;;;;;;4991727;28;20034;-68
2022/10/13 06:21:30;;;;;;;37.53;21.13;;;;;;;;;;4991573;28;20029;-69
2022/10/13 06:23:55;;;;;;;40.37;20.97;;;;;;;;;;4991774;28;20014;-69
2022/10/13 06:26:21;;;;;;;43.90;22.13;;;;;;;;;;4989267;28;20073;-70
2022/10/13 06:28:46;;;;;;;44.27;22.40;;;;;;;;;;4989542;28;20117;-69
2022/10/13 06:31:11;;;;;;;35.03;21.07;;;;;;;;;;4991529;28;20784;-69
2022/10/13 06:33:36;;;;;;;35.33;20.73;;;;;;;;;;4993847;28;20388;-69
2022/10/13 06:36:04;;;;;;;41.85;21.38;;;;;;;13.28;nan;101284.50;4991528;28;20113;-69
2022/10/13 06:38:29;;;;;;;38.50;21.98;;;;;;;;;;4987576;28;20037;-69
2022/10/13 06:40:58;;;;;;;38.83;21.98;;;;;;;;;;4991464;28;20030;-67
2022/10/13 06:43:23;;;;;;;40.60;22.35;;;;;;;;;;5006392;28;20030;-69
2022/10/13 06:45:48;;;;;;;39.40;22.03;;;;;;;;;;4990993;28;20392;-69
2022/10/13 06:48:13;;;;;;;43.33;21.77;;;;;;;;;;4994544;28;20440;-69
2022/10/13 06:50:39;;;;;;;37.70;21.67;;;;;;;;;;4991305;28;20018;-69
2022/10/13 06:53:04;;;;;;;43.43;22.67;;;;;;;;;;4990960;28;20591;-68
2022/10/13 06:55:29;;;;;;;39.67;21.65;;;;;;;;;;4991283;28;20556;-68
2022/10/13 06:57:54;;;;;;;37.00;20.77;;;;;;;;;;4990160;28;20528;-70
2022/10/13 07:00:20;;;;;;;36.30;20.20;;;;;;;;;;4990724;28;20030;-70
2022/10/13 07:02:48;;;;;;;34.78;19.27;;;;;;;;;;4994597;28;20030;-68
2022/10/13 07:05:13;;;;;;;34.13;19.63;;;;;;;;;;4991392;28;20030;-68
2022/10/13 07:07:38;;;;;;;31.20;18.80;;;;;;;;;;4991231;28;20026;-68
2022/10/13 07:10:03;;;;;;;27.53;18.43;;;;;;;;;;4991453;28;20088;-68
2022/10/13 07:12:29;;;;;;;30.65;17.95;;;;;;;;;;4991108;28;20041;-67
2022/10/13 07:14:54;;;;;;;28.30;18.33;;;;;;;;;;4989148;28;20026;-67
2022/10/13 07:17:19;;;;;;;28.23;18.17;;;;;;;;;;4992137;28;20059;-67
2022/10/13 07:19:47;;;;;;;28.73;17.75;;;;;;;;;;4990813;28;20037;-69
2022/10/13 07:22:12;;;;;;;30.85;18.38;;;;;;;;;;4987942;28;20054;-68
2022/10/13 07:24:38;;;;;;;33.30;18.63;;;;;;;;;;4989371;28;20073;-68
2022/10/13 07:27:03;;;;;;;32.90;19.40;;;;;;;;;;4994999;28;20030;-71
2022/10/13 07:29:28;;;;;;;33.80;18.87;;;;;;;;;;4993221;28;20349;-69
2022/10/13 07:31:53;;;;;;;30.20;18.67;;;;;;;;;;4995218;28;20276;-68
2022/10/13 07:34:19;;;;;;;29.73;18.50;;;;;;;;;;4993274;28;20819;-68
2022/10/13 07:36:44;;;;;;;36.43;18.87;;;;;;;;;;4994801;28;20026;-68
2022/10/13 07:39:09;;;;;;;27.67;17.35;;;;;;;;;;4993918;28;20276;-68
2022/10/13 07:41:35;;;;;;;27.13;18.23;;;;;;;;;;4994438;28;20057;-68
2022/10/13 07:44:00;;;;;;;28.50;17.88;;;;;;;;;;4994472;28;20049;-68
2022/10/13 07:46:25;;;;;;;30.37;18.70;;;;;;;;;;4994229;28;20041;-67
2022/10/13 07:48:51;;;;;;;30.88;18.13;;;;;;;;;;4994539;28;20077;-67
2022/10/13 07:51:16;;;;;;;27.98;17.70;;;;;;;;;;4994226;28;20026;-68
2022/10/13 07:53:42;;;;;;;29.15;18.25;;;;;;;;;;4993688;28;20026;-68
2022/10/13 07:56:09;;;;;;;30.85;17.08;;;;;;;;;;4993811;28;20377;-68
2022/10/13 07:58:38;;;;;;;28.77;18.02;;;;;;;;;;4994264;28;20039;-69
2022/10/13 08:01:04;;;;;;;24.90;16.65;;;;;;;;;;4994465;28;20080;-69
2022/10/13 08:03:31;;;;;;;27.00;17.85;;;;;;;;;;4994706;28;20022;-69
2022/10/13 08:06:00;;;;;;;26.35;17.20;;;;;;;;;;4992500;28;20522;-69
2022/10/13 08:08:26;;;;;;;29.50;17.83;;;;;;;;;;4993225;28;20058;-68
2022/10/13 08:10:51;;;;;;;26.25;17.27;;;;;;;;;;4993020;28;20034;-68
2022/10/13 08:13:16;;;;;;;26.87;17.10;;;;;;;;;;4993978;28;20484;-68
2022/10/13 08:15:42;;;;;;;26.27;16.90;;;;;;;;;;4994062;28;20404;-68
2022/10/13 08:18:08;;;;;;;30.70;17.02;;;;;;;;;;5001894;28;20026;-69
2022/10/13 08:20:34;;;;;;;24.50;17.02;;;;;;;;;;4975567;28;20586;-69
2022/10/13 08:22:59;;;;;;;27.90;17.17;;;;;;;;;;4994197;28;20045;-69
2022/10/13 08:25:24;;;;;;;34.30;17.50;;;;;;;;;;4993734;28;20049;-68
2022/10/13 08:27:50;;;;;;;27.13;16.77;;;;;;;;;;4993384;28;20480;-68
2022/10/13 08:30:15;;;;;;;30.70;16.83;;;;;;;;;;4993427;28;20272;-67
2022/10/13 08:32:40;;;;;;;29.03;18.03;;;;;;;;;;4991507;28;20030;-68
2022/10/13 08:35:06;;;;;;;26.17;16.77;;;;;;;;;;4986878;28;20294;-68
2022/10/13 08:37:31;;;;;;;27.83;17.77;;;;;;;;;;4993119;28;20472;-67
2022/10/13 08:39:56;;;;;;;26.73;16.37;;;;;;;;;;4992288;28;20116;-69
2022/10/13 08:42:22;;;;;;;30.90;17.42;;;;;;;;;;4993150;28;20275;-68
2022/10/13 08:44:52;;;;;;;29.17;16.50;;;;;;;;;;4996280;28;20014;-68
2022/10/13 08:47:30;;;;;;;28.27;16.85;;;;;;;15.68;nan;101270.84;4990548;28;20488;-69
2022/10/13 08:49:56;;;;;;;28.42;17.02;;;;;;;;;;4995367;28;20026;-68
2022/10/13 08:52:23;;;;;;;26.48;16.50;;;;;;;;;;4994378;28;20160;-67
2022/10/13 08:54:49;;;;;;;24.55;16.00;;;;;;;;;;4995132;28;20034;-68
2022/10/13 08:57:15;;;;;;;33.03;16.55;;;;;;;;;;4993677;28;20412;-68
2022/10/13 08:59:40;;;;;;;23.92;16.75;;;;;;;;;;4996842;28;20030;-68
2022/10/13 09:02:22;;;;;;;32.55;16.83;;;;;;;;;;4992966;28;20026;-69
2022/10/13 09:04:49;;;;;;;25.83;16.48;;;;;;;;;;4988945;28;20033;-69
2022/10/13 09:07:17;;;;;;;27.02;16.58;;;;;;;;;;4988350;28;20112;-68
2022/10/13 09:09:43;;;;;;;27.50;17.15;;;;;;;;;;4992348;28;20080;-68
2022/10/13 09:12:09;;;;;;;28.30;16.20;;;;;;;;;;4991211;28;20057;-68
2022/10/13 09:14:37;;;;;;;26.67;15.63;;;;;;;16.32;nan;101267.97;4992954;28;20279;-69
2022/10/13 09:17:11;;;;;;;25.45;16.13;;;;;;;;;;4991364;28;20543;-68
2022/10/13 09:19:36;;;;;;;26.13;15.48;;;;;;;;;;4989828;28;20053;-69
2022/10/13 09:22:22;;;;;;;25.85;15.80;;;;;;;;;;4991636;28;20061;-68
2022/10/13 09:25:00;;;;;;;23.65;15.43;;;;;;;;;;4991273;28;20416;-70
2022/10/13 09:27:25;;;;;;;24.23;14.85;;;;;;;;;;4990043;28;20029;-70
2022/10/13 09:29:51;;;;;;;25.57;16.03;;;;;;;;;;4992800;28;20022;-68
2022/10/13 09:32:18;;;;;;;24.52;15.32;;;;;;;;;;4992872;28;20062;-68
2022/10/13 09:34:44;;;;;;;26.30;14.88;;;;;;;;;;4992136;28;20036;-68
2022/10/13 09:37:17;;;;;;;22.95;15.60;;;;;;;;;;4992609;28;20026;-69
2022/10/13 09:39:42;;;;;;;27.38;14.55;;;;;;;;;;4990070;28;20022;-69
2022/10/13 09:42:18;;;;;;;23.60;14.60;;;;;;;;;;4990714;28;20080;-68
2022/10/13 09:44:43;;;;;;;28.27;14.65;;;;;;;;;;4992204;28;20049;-68
2022/10/13 09:47:16;;;;;;;25.92;14.57;;;;;;;;;;4989331;28;20062;-69
2022/10/13 09:49:43;;;;;;;31.67;15.10;;;;;;;;;;4991671;28;20041;-69
2022/10/13 09:52:11;;;;;;;24.77;15.15;;;;;;;;;;4997055;28;20032;-68
2022/10/13 09:54:39;;;;;;;23.63;14.20;;;;;;;;;;4987714;28;20093;-68
2022/10/13 09:57:08;;;;;;;23.75;15.18;;;;;;;;;;4991782;28;20034;-67
2022/10/13 09:59:40;;;;;;;28.27;15.38;;;;;;;;;;4986949;28;20052;-68
2022/10/13 10:02:18;;;;;;;19.73;13.82;;;;;;;;;;4986576;28;20763;-69
2022/10/13 10:04:43;;;;;;;24.27;14.27;;;;;;;;;;4989166;28;20026;-67
2022/10/13 10:07:10;;;;;;;23.80;13.63;;;;;;;;;;4990563;28;20121;-68
2022/10/13 10:09:40;;;;;;;24.33;13.68;;;;;;;;;;4993892;28;20105;-67
2022/10/13 10:12:05;;;;;;;24.67;13.50;;;;;;;;;;4990481;28;20030;-68
2022/10/13 10:14:33;;;;;;;21.33;13.57;;;;;;;;;;5004713;28;20026;-68
2022/10/13 10:16:58;;;;;;;20.40;13.15;;;;;;;;;;4989262;28;20099;-69
2022/10/13 10:19:41;;;;;;;22.60;13.43;;;;;;;;;;4989673;28;20046;-68
2022/10/13 10:22:19;;;;;;;20.70;12.73;;;;;;;;;;4992257;28;20038;-69
2022/10/13 10:25:03;;;;;;;22.40;12.50;;;;;;;;;;4988424;28;20022;-69
2022/10/13 10:27:47;;;;;;;18.88;12.32;;;;;;;18.52;nan;101180.88;4989185;28;20488;-68
2022/10/13 10:30:18;;;;;;;22.65;13.07;;;;;;;;;;4989248;28;20105;-68
2022/10/13 10:32:59;;;;;;;18.23;12.35;;;;;;;18.63;nan;101170.00;5003286;28;20030;-68
2022/10/13 10:35:39;;;;;;;22.33;12.43;;;;;;;18.61;nan;101145.47;4990885;28;20556;-68
2022/10/13 10:38:10;;;;;;;18.02;12.20;;;;;;;;;;4988938;28;20185;-69
2022/10/13 10:40:38;;;;;;;22.05;12.25;;;;;;;;;;4988733;28;20404;-68
2022/10/13 10:43:12;;;;;;;23.48;13.15;;;;;;;;;;4989971;28;20042;-68
2022/10/13 10:45:39;;;;;;;19.85;12.18;;;;;;;18.83;nan;101118.63;4991243;28;20098;-68
2022/10/13 10:48:31;;;;;;;19.77;12.63;;;;;;;18.77;nan;101130.34;5004499;28;20542;-68
2022/10/13 10:50:58;;;;;;;23.23;11.65;;;;;;;;;;4991123;28;20026;-68
2022/10/13 10:53:26;;;;;;;17.92;11.35;;;;;;;;;;4989849;28;20578;-68
2022/10/13 10:55:59;;;;;;;17.35;11.85;;;;;;;19.15;nan;101144.31;4987335;28;20403;-68
2022/10/13 10:58:46;;;;;;;17.85;12.23;;;;;;;19.29;nan;101128.59;4987731;28;20022;-68
2022/10/13 11:01:20;;;;;;;17.40;11.88;;;;;;;19.37;nan;101113.91;4993004;28;20092;-67
2022/10/13 11:03:56;;;;;;;16.27;10.90;;;;;;;19.46;nan;101066.91;4990781;28;20026;-68
2022/10/13 11:06:40;;;;;;;21.48;12.32;;;;;;;19.54;nan;101059.16;4991264;28;20041;-69
2022/10/13 11:09:06;;;;;;;20.50;10.98;;;;;;;19.54;nan;101151.88;4996924;28;20057;-69
2022/10/13 11:11:37;;;;;;;17.23;11.18;;;;;;;19.53;nan;101104.84;4993889;28;20480;-68
2022/10/13 11:14:05;;;;;;;17.67;10.77;;;;;;;19.59;nan;101116.34;4994302;28;20026;-67
2022/10/13 11:16:36;;;;;;;19.13;11.43;;;;;;;19.64;nan;101113.66;4991629;28;20057;-66
2022/10/13 11:19:04;;;;;;;15.20;10.60;;;;;;;19.69;nan;101117.16;4991615;28;20026;-66
2022/10/13 11:21:58;;;;;;;16.27;10.63;;;;;;;19.78;nan;101109.41;4990179;28;20037;-69
2022/10/13 11:24:32;;;;;;;15.50;11.25;;;;;;;19.89;nan;101096.81;4995163;28;20042;-68
2022/10/13 11:27:18;;;;;;;16.75;10.30;;;;;;;19.97;nan;101090.94;4992532;28;20097;-68
2022/10/13 11:29:47;;;;;;;18.48;10.50;;;;;;;20.05;nan;101092.25;4992796;28;20030;-68
2022/10/13 11:35:05;;;;;;;13.18;10.13;;;;;;;20.09;nan;101079.94;4994135;28;20030;-68
2022/10/13 11:37:37;;;;;;;14.25;10.02;;;;;;;20.19;nan;101077.25;4995190;28;20023;-68
2022/10/13 11:40:15;;;;;;;24.17;10.50;;;;;;;20.30;nan;101067.28;4998590;28;20376;-67
2022/10/13 11:43:01;;;;;;;16.65;10.57;;;;;;;20.30;nan;101059.25;5005695;28;20034;-66
2022/10/13 11:45:47;;;;;;;17.60;10.95;;;;;;;20.22;nan;101025.06;4993244;28;20400;-65
2022/10/13 11:48:31;;;;;;;16.33;10.32;;;;;;;20.25;nan;101053.94;4992354;28;20053;-67
2022/10/13 11:51:15;;;;;;;17.13;10.68;;;;;;;20.30;nan;101052.03;4989810;28;20175;-66
2022/10/13 11:53:55;;;;;;;14.13;10.10;;;;;;;20.37;nan;101047.19;4990071;28;20030;-66
2022/10/13 11:56:31;;;;;;;17.45;10.95;;;;;;;20.37;nan;101022.31;4992111;28;20098;-66
2022/10/13 11:58:57;;;;;;;17.17;10.25;;;;;;;;;;4988034;28;20054;-66
2022/10/13 12:01:22;;;;;;;13.57;10.10;;;;;;;20.53;nan;101039.91;4990747;28;20127;-66
2022/10/13 12:03:47;;;;;;;16.13;11.02;;;;;;;20.63;nan;101038.28;4994310;28;21377;-66
2022/10/13 12:06:25;;;;;;;15.68;10.80;;;;;;;20.68;nan;101024.88;4992672;28;20034;-66
2022/10/13 12:08:50;;;;;;;18.08;10.43;;;;;;;;;;5001194;28;20038;-68
2022/10/13 12:11:25;;;;;;;15.27;10.80;;;;;;;20.80;nan;101030.69;4989833;28;20026;-68
2022/10/13 12:13:51;;;;;;;14.95;10.07;;;;;;;20.86;nan;101018.88;4988061;28;20036;-69
2022/10/13 12:16:17;;;;;;;13.45;9.57;;;;;;;20.91;nan;101026.84;4991931;28;20050;-69
2022/10/13 12:18:42;;;;;;;14.35;9.93;;;;;;;20.96;nan;101028.69;4990850;28;20030;-69
2022/10/13 12:21:19;;;;;;;15.95;9.68;;;;;;;21.00;nan;101033.22;4992638;28;20038;-69
2022/10/13 12:23:46;;;;;;;16.55;10.40;;;;;;;21.04;nan;101015.50;5005355;28;20050;-68
2022/10/13 12:26:17;;;;;;;14.25;9.77;;;;;;;21.09;nan;101011.97;4991493;28;20030;-68
2022/10/13 12:28:55;;;;;;;16.13;10.05;;;;;;;21.15;nan;101031.50;4990001;28;20388;-69
2022/10/13 12:31:23;;;;;;;15.23;10.40;;;;;;;21.21;nan;101022.34;4990930;28;20033;-68
2022/10/13 12:33:57;;;;;;;15.65;10.77;;;;;;;21.26;nan;101067.81;4990410;28;20069;-67
2022/10/13 12:36:29;;;;;;;16.35;10.73;;;;;;;21.32;nan;101002.41;4992409;28;20034;-67
2022/10/13 12:38:59;;;;;;;17.27;10.32;;;;;;;21.39;nan;101002.91;4992270;28;20030;-67
2022/10/13 12:41:31;;;;;;;16.42;10.10;;;;;;;21.43;nan;101003.97;4991627;28;20030;-68
2022/10/13 12:43:56;;;;;;;16.90;9.73;;;;;;;21.37;nan;100997.00;4991114;28;20031;-67
2022/10/13 12:46:35;;;;;;;19.33;10.40;;;;;;;21.40;nan;101001.81;4990138;28;20030;-68
2022/10/13 12:49:28;;;;;;;18.83;10.27;;;;;;;21.24;nan;101021.78;4995168;28;20026;-70
2022/10/13 12:52:08;;;;;;;13.75;10.23;;;;;;;21.28;nan;100973.78;4990599;28;20046;-69
2022/10/13 12:54:37;;;;;;;18.20;9.82;;;;;;;21.25;nan;100997.38;4991837;28;20032;-70
2022/10/13 12:57:05;;;;;;;14.52;9.75;;;;;;;;;;4992966;28;20113;-69
2022/10/13 12:59:31;;;;;;;15.15;9.88;;;;;;;21.21;nan;100982.16;4991018;28;20077;-69
2022/10/13 13:02:02;;;;;;;14.75;10.20;;;;;;;21.32;nan;100989.03;4990015;28;20558;-70
2022/10/13 13:04:36;;;;;;;15.20;10.15;;;;;;;21.39;nan;100994.06;4991059;28;20029;-69
2022/10/13 13:07:04;;;;;;;19.67;10.38;;;;;;;21.40;nan;100987.63;4988194;28;20038;-70
2022/10/13 13:09:32;;;;;;;16.08;10.05;;;;;;;21.40;nan;100976.91;4993632;28;20022;-69
2022/10/13 13:12:09;;;;;;;15.00;9.98;;;;;;;21.52;nan;101004.13;4992181;28;20030;-69
2022/10/13 13:14:37;;;;;;;14.10;10.32;;;;;;;21.54;nan;100987.78;4993039;28;20030;-69
2022/10/13 13:17:11;;;;;;;15.55;10.38;;;;;;;21.54;nan;100928.81;4991033;28;20046;-70
2022/10/13 13:19:37;;;;;;;14.43;9.82;;;;;;;21.59;nan;100982.34;4992150;28;20481;-69
2022/10/13 13:22:04;;;;;;;14.13;10.18;;;;;;;21.58;nan;100983.44;4990905;28;20041;-69
2022/10/13 13:24:30;;;;;;;16.67;9.80;;;;;;;21.50;nan;101008.16;4989416;28;20484;-69
2022/10/13 13:26:56;;;;;;;14.23;10.73;;;;;;;21.54;nan;100977.06;4991246;28;20041;-69
2022/10/13 13:29:21;;;;;;;14.80;10.43;;;;;;;21.54;nan;100979.72;4988623;28;20030;-69
2022/10/13 13:31:46;;;;;;;15.95;10.52;;;;;;;;;;4992189;28;20033;-69
2022/10/13 13:34:12;;;;;;;17.40;10.40;;;;;;;21.56;nan;101015.88;4985226;28;20488;-69
2022/10/13 13:36:37;;;;;;;18.33;10.80;;;;;;;;;;4969320;28;20022;-69
2022/10/13 13:39:03;;;;;;;18.87;10.20;;;;;;;21.54;nan;100955.63;4992393;28;20052;-69
2022/10/13 13:41:30;;;;;;;16.08;11.68;;;;;;;21.54;nan;100902.81;4992202;28;20026;-69
2022/10/13 13:43:56;;;;;;;16.77;11.18;;;;;;;21.56;nan;100972.22;4989593;28;20117;-71